createdAt,value
2023-01-13T00:01:45.588Z,84.16
2023-01-13T00:04:15.067Z,82.25
2023-01-13T00:06:44.868Z,83.23
2023-01-13T00:09:14.669Z,82.85
2023-01-13T00:11:44.526Z,82.14
2023-01-13T00:14:14.185Z,82.92
2023-01-13T00:16:43.987Z,83.55
2023-01-13T00:19:13.847Z,83.72
2023-01-13T00:21:44.004Z,83.92
2023-01-13T00:24:13.771Z,83.66
2023-01-13T00:26:43.590Z,83.99
2023-01-13T00:29:13.668Z,83.75
2023-01-13T00:31:43.652Z,84.40
2023-01-13T00:34:13.233Z,83.92
2023-01-13T00:36:43.089Z,84.12
2023-01-13T00:39:12.864Z,84.12
2023-01-13T00:42:00.213Z,84.12
2023-01-13T00:44:30.018Z,84.54
2023-01-13T00:46:59.814Z,84.72
2023-01-13T00:49:29.879Z,83.49
2023-01-13T00:51:59.975Z,84.05
2023-01-13T00:54:29.815Z,84.45
2023-01-13T00:56:59.608Z,84.60
2023-01-13T00:59:29.383Z,83.74
2023-01-13T01:01:59.304Z,84.26
2023-01-13T01:04:29.169Z,83.79
2023-01-13T01:06:58.919Z,83.79
2023-01-13T01:09:30.332Z,84.07
2023-01-13T01:12:02.289Z,83.25
2023-01-13T01:14:32.062Z,83.98
2023-01-13T01:17:01.924Z,83.15
2023-01-13T01:19:31.685Z,84.31
2023-01-13T01:22:01.696Z,84.31
2023-01-13T01:24:31.637Z,84.45
2023-01-13T01:27:01.844Z,83.34
2023-01-13T01:29:31.630Z,83.51
2023-01-13T01:32:01.496Z,83.92
2023-01-13T01:34:31.411Z,84.36
2023-01-13T01:37:01.275Z,83.73
2023-01-13T01:39:31.046Z,83.78
2023-01-13T01:42:18.827Z,83.65
2023-01-13T01:44:57.227Z,84.29
2023-01-13T01:47:28.940Z,84.67
2023-01-13T01:50:01.695Z,84.37
2023-01-13T01:52:40.869Z,84.33
2023-01-13T01:55:13.414Z,83.95
2023-01-13T01:57:57.696Z,85.37
2023-01-13T02:00:29.258Z,85.37
2023-01-13T02:03:01.365Z,84.02
2023-01-13T02:05:31.178Z,84.87
2023-01-13T02:08:02.423Z,84.79
2023-01-13T02:10:32.589Z,84.79
2023-01-13T02:13:05.481Z,84.47
2023-01-13T02:16:04.132Z,84.69
2023-01-13T02:18:54.969Z,85.51
2023-01-13T02:21:51.639Z,85.37
2023-01-13T02:24:55.559Z,84.91
2023-01-13T02:27:36.892Z,84.17
2023-01-13T02:30:33.968Z,84.25
2023-01-13T02:33:18.692Z,83.71
2023-01-13T02:36:06.064Z,84.00
2023-01-13T02:38:44.703Z,83.89
2023-01-13T02:41:35.056Z,82.92
2023-01-13T02:44:10.592Z,83.05
2023-01-13T02:47:10.676Z,82.39
2023-01-13T02:49:43.212Z,82.59
2023-01-13T02:52:16.052Z,81.04
2023-01-13T02:54:48.929Z,81.08
2023-01-13T02:57:21.588Z,80.42
2023-01-13T02:59:54.210Z,80.17
2023-01-13T03:02:25.992Z,80.78
2023-01-13T03:05:00.341Z,79.73
2023-01-13T03:07:42.089Z,80.39
2023-01-13T03:10:29.931Z,80.61
2023-01-13T03:13:02.883Z,80.42
2023-01-13T03:15:40.181Z,79.99
2023-01-13T03:18:29.296Z,80.29
2023-01-13T03:21:02.085Z,80.95
2023-01-13T03:23:37.794Z,80.13
2023-01-13T03:26:09.085Z,80.29
2023-01-13T03:28:42.014Z,81.05
2023-01-13T03:31:14.828Z,81.01
2023-01-13T03:33:47.315Z,80.35
2023-01-13T03:36:18.897Z,80.80
2023-01-13T03:38:51.688Z,81.38
2023-01-13T03:41:40.784Z,81.21
2023-01-13T03:44:22.713Z,81.24
2023-01-13T03:47:09.848Z,81.72
2023-01-13T03:49:45.129Z,81.48
2023-01-13T03:52:17.760Z,81.62
2023-01-13T03:54:53.386Z,81.39
2023-01-13T03:57:25.897Z,80.79
2023-01-13T03:59:58.714Z,80.89
2023-01-13T04:02:43.363Z,80.45
2023-01-13T04:05:13.948Z,80.06
2023-01-13T04:08:15.111Z,79.32
2023-01-13T04:10:52.948Z,79.50
2023-01-13T04:13:25.739Z,78.04
2023-01-13T04:15:55.820Z,77.62
2023-01-13T04:18:30.632Z,77.54
2023-01-13T04:21:02.268Z,76.02
2023-01-13T04:23:34.590Z,75.41
2023-01-13T04:26:06.565Z,75.40
2023-01-13T04:28:36.619Z,75.09
2023-01-13T04:31:06.594Z,74.47
2023-01-13T04:33:36.645Z,74.23
2023-01-13T04:36:08.457Z,73.75
2023-01-13T04:38:38.257Z,73.38
2023-01-13T04:41:08.006Z,74.21
2023-01-13T04:43:37.754Z,74.21
2023-01-13T04:46:09.980Z,72.84
2023-01-13T04:48:39.834Z,72.84
2023-01-13T04:51:09.602Z,74.43
2023-01-13T04:53:39.356Z,74.80
2023-01-13T04:56:10.813Z,74.73
2023-01-13T04:58:40.565Z,74.35
2023-01-13T05:01:10.488Z,74.21
2023-01-13T05:03:40.392Z,75.90
2023-01-13T05:06:11.029Z,75.90
2023-01-13T05:08:40.810Z,75.88
2023-01-13T05:11:28.661Z,76.67
2023-01-13T05:14:15.744Z,76.60
2023-01-13T05:17:02.187Z,78.46
2023-01-13T05:19:39.162Z,78.56
2023-01-13T05:22:28.818Z,77.95
2023-01-13T05:25:16.296Z,78.87
2023-01-13T05:27:46.062Z,79.62
2023-01-13T05:30:16.563Z,80.09
2023-01-13T05:32:46.647Z,80.02
2023-01-13T05:35:17.043Z,80.92
2023-01-13T05:37:47.663Z,80.97
2023-01-13T05:40:37.374Z,80.83
2023-01-13T05:43:22.180Z,80.92
2023-01-13T05:45:54.564Z,81.60
2023-01-13T05:48:26.502Z,81.45
2023-01-13T05:50:57.132Z,82.08
2023-01-13T05:53:27.522Z,81.81
2023-01-13T05:55:57.401Z,81.50
2023-01-13T05:58:28.345Z,81.46
2023-01-13T06:01:03.964Z,80.69
2023-01-13T06:03:33.912Z,81.35
2023-01-13T06:06:05.959Z,80.53
2023-01-13T06:08:38.039Z,80.40
2023-01-13T06:11:07.793Z,81.13
2023-01-13T06:13:37.657Z,80.69
2023-01-13T06:16:10.272Z,80.85
2023-01-13T06:18:40.076Z,81.32
2023-01-13T06:21:09.869Z,81.55
2023-01-13T06:23:39.949Z,81.27
2023-01-13T06:26:17.386Z,81.29
2023-01-13T06:28:47.352Z,81.13
2023-01-13T06:31:17.678Z,80.82
2023-01-13T06:33:50.909Z,80.15
2023-01-13T06:36:26.795Z,80.25
2023-01-13T06:38:59.579Z,80.42
2023-01-13T06:41:49.787Z,80.82
2023-01-13T06:44:20.780Z,80.36
2023-01-13T06:46:52.023Z,80.19
2023-01-13T06:49:22.006Z,80.09
2023-01-13T06:51:51.737Z,80.82
2023-01-13T06:54:21.278Z,80.82
2023-01-13T06:56:51.040Z,80.73
2023-01-13T06:59:20.795Z,80.34
2023-01-13T07:01:51.208Z,80.29
2023-01-13T07:04:21.114Z,79.14
2023-01-13T07:06:50.896Z,79.03
2023-01-13T07:09:20.659Z,79.86
2023-01-13T07:11:52.054Z,79.31
2023-01-13T07:14:39.934Z,78.86
2023-01-13T07:17:09.668Z,79.53
2023-01-13T07:19:39.482Z,79.25
2023-01-13T07:22:12.809Z,79.68
2023-01-13T07:24:42.711Z,80.50
2023-01-13T07:27:12.762Z,80.41
2023-01-13T07:29:43.737Z,79.79
2023-01-13T07:32:13.169Z,79.62
2023-01-13T07:34:43.062Z,78.99
2023-01-13T07:37:12.811Z,79.53
2023-01-13T07:39:42.661Z,78.96
2023-01-13T07:42:19.592Z,79.04
2023-01-13T07:44:49.390Z,78.38
2023-01-13T07:47:20.859Z,78.38
2023-01-13T07:49:50.832Z,78.34
2023-01-13T07:52:20.635Z,78.29
2023-01-13T07:54:50.458Z,77.86
2023-01-13T07:57:20.510Z,78.49
2023-01-13T07:59:50.664Z,77.59
2023-01-13T08:02:20.556Z,77.59
2023-01-13T08:04:50.606Z,78.02
2023-01-13T08:07:20.653Z,77.04
2023-01-13T08:09:50.173Z,77.86
2023-01-13T08:12:37.160Z,77.18
2023-01-13T08:15:10.080Z,77.49
2023-01-13T08:17:39.844Z,76.80
2023-01-13T08:20:12.152Z,76.62
2023-01-13T08:22:41.908Z,76.62
2023-01-13T08:25:11.727Z,75.77
2023-01-13T08:27:41.642Z,75.41
2023-01-13T08:30:12.788Z,75.67
2023-01-13T08:32:45.546Z,75.44
2023-01-13T08:35:16.100Z,75.65
2023-01-13T08:37:47.496Z,75.13
2023-01-13T08:40:19.272Z,74.21
2023-01-13T08:42:49.139Z,74.21
2023-01-13T08:45:18.679Z,74.44
2023-01-13T08:47:48.774Z,74.81
2023-01-13T08:50:18.712Z,74.26
2023-01-13T08:52:48.443Z,73.88
2023-01-13T08:55:18.053Z,74.41
2023-01-13T08:57:48.021Z,73.06
2023-01-13T09:00:18.119Z,73.06
2023-01-13T09:02:48.060Z,73.15
2023-01-13T09:05:18.018Z,72.76
2023-01-13T09:07:47.933Z,72.61
2023-01-13T09:10:17.540Z,73.30
2023-01-13T09:13:04.922Z,73.59
2023-01-13T09:15:34.821Z,72.96
2023-01-13T09:18:05.407Z,72.46
2023-01-13T09:20:35.188Z,73.43
2023-01-13T09:23:08.847Z,72.90
2023-01-13T09:25:37.428Z,72.60
2023-01-13T09:28:09.739Z,72.83
2023-01-13T09:30:39.543Z,73.24
2023-01-13T09:33:27.621Z,73.24
2023-01-13T09:36:01.036Z,73.34
2023-01-13T09:38:30.801Z,73.07
2023-01-13T09:41:00.610Z,73.49
2023-01-13T09:43:51.298Z,75.15
2023-01-13T09:46:44.856Z,76.14
2023-01-13T09:49:26.515Z,75.97
2023-01-13T09:52:10.519Z,77.65
2023-01-13T09:55:01.068Z,78.50
2023-01-13T09:57:33.857Z,77.79
2023-01-13T10:00:06.770Z,78.60
2023-01-13T10:02:57.606Z,78.60
2023-01-13T10:05:32.171Z,79.04
2023-01-13T10:08:05.467Z,79.54
2023-01-13T10:10:54.427Z,80.53
2023-01-13T10:13:29.869Z,81.39
2023-01-13T10:16:24.846Z,81.42
2023-01-13T10:19:03.451Z,81.89
2023-01-13T10:21:55.169Z,83.13
2023-01-13T10:24:39.386Z,83.23
2023-01-13T10:27:15.284Z,83.18
2023-01-13T10:29:44.737Z,84.44
2023-01-13T10:32:14.491Z,84.44
2023-01-13T10:34:52.396Z,84.06
2023-01-13T10:37:27.961Z,84.10
2023-01-13T10:40:00.768Z,84.13
2023-01-13T10:42:30.837Z,84.04
2023-01-13T10:45:03.626Z,83.57
2023-01-13T10:47:36.694Z,83.69
2023-01-13T10:50:13.717Z,84.09
2023-01-13T10:52:58.265Z,84.15
2023-01-13T10:55:37.884Z,84.36
2023-01-13T10:58:21.339Z,84.14
2023-01-13T11:00:52.793Z,84.40
2023-01-13T11:03:28.148Z,84.15
2023-01-13T11:06:00.329Z,84.15
2023-01-13T11:08:33.114Z,84.42
2023-01-13T11:11:02.963Z,83.36
2023-01-13T11:13:40.233Z,83.37
2023-01-13T11:16:19.127Z,83.23
2023-01-13T11:19:05.259Z,83.58
2023-01-13T11:21:40.935Z,83.36
2023-01-13T11:24:23.575Z,84.15
2023-01-13T11:26:56.383Z,84.52
2023-01-13T11:29:44.404Z,83.83
2023-01-13T11:32:23.275Z,83.16
2023-01-13T11:34:58.588Z,83.98
2023-01-13T11:37:31.674Z,83.41
2023-01-13T11:40:12.844Z,83.19
2023-01-13T11:42:57.515Z,83.10
2023-01-13T11:45:46.886Z,82.83
2023-01-13T11:48:20.786Z,83.23
2023-01-13T11:51:11.317Z,82.58
2023-01-13T11:54:08.087Z,83.01
2023-01-13T11:56:48.957Z,82.75
2023-01-13T11:59:46.991Z,82.34
2023-01-13T12:02:37.202Z,82.70
2023-01-13T12:05:17.861Z,82.60
2023-01-13T12:08:06.007Z,82.42
2023-01-13T12:10:47.614Z,82.24
2023-01-13T12:13:32.333Z,81.91
2023-01-13T12:16:25.622Z,81.51
2023-01-13T12:19:15.452Z,81.87
2023-01-13T12:21:56.792Z,81.19
2023-01-13T12:24:32.175Z,81.49
2023-01-13T12:27:14.196Z,81.63
2023-01-13T12:29:45.984Z,81.31
2023-01-13T12:32:21.890Z,81.49
2023-01-13T12:35:10.989Z,80.92
2023-01-13T12:37:52.635Z,79.47
2023-01-13T12:40:43.734Z,79.15
2023-01-13T12:43:40.086Z,79.61
2023-01-13T12:46:24.539Z,78.63
2023-01-13T12:48:59.817Z,78.64
2023-01-13T12:54:34.788Z,80.25
2023-01-13T12:57:16.748Z,81.14
2023-01-13T12:59:49.442Z,79.69
2023-01-13T13:02:24.872Z,79.69
2023-01-13T13:04:57.664Z,79.55
2023-01-13T13:07:32.727Z,79.47
2023-01-13T13:10:05.513Z,78.80
2023-01-13T13:13:04.778Z,78.26
2023-01-13T13:15:36.299Z,78.83
2023-01-13T13:18:21.511Z,77.64
2023-01-13T13:21:04.644Z,77.40
2023-01-13T13:23:49.042Z,77.26
2023-01-13T13:26:21.678Z,77.02
2023-01-13T13:29:03.418Z,77.44
2023-01-13T13:32:10.260Z,77.48
2023-01-13T13:34:57.944Z,76.76
2023-01-13T13:37:30.711Z,76.97
2023-01-13T13:40:21.185Z,76.83
2023-01-13T13:43:13.803Z,76.84
2023-01-13T13:46:04.559Z,76.75
2023-01-13T13:48:34.475Z,76.63
2023-01-13T13:51:07.283Z,76.80
2023-01-13T13:53:42.739Z,76.86
2023-01-13T13:56:23.924Z,76.67
2023-01-13T13:58:54.314Z,76.00
2023-01-13T14:01:33.469Z,76.60
2023-01-13T14:04:15.223Z,76.77
2023-01-13T14:06:59.497Z,76.43
2023-01-13T14:09:31.606Z,76.24
2023-01-13T14:12:03.889Z,75.76
2023-01-13T14:14:33.848Z,76.41
2023-01-13T14:17:05.067Z,75.97
2023-01-13T14:19:36.564Z,76.01
2023-01-13T14:22:09.692Z,76.23
2023-01-13T14:24:42.505Z,76.16
2023-01-13T14:27:17.898Z,75.31
2023-01-13T14:29:47.809Z,75.31
2023-01-13T14:32:20.804Z,75.11
2023-01-13T14:34:52.128Z,75.06
2023-01-13T14:37:31.595Z,75.55
2023-01-13T14:40:01.847Z,74.81
2023-01-13T14:42:33.314Z,74.51
2023-01-13T14:45:03.342Z,74.55
2023-01-13T14:47:34.513Z,74.76
2023-01-13T14:50:27.656Z,74.76
2023-01-13T14:53:00.229Z,74.27
2023-01-13T14:55:38.613Z,74.58
2023-01-13T14:58:28.387Z,74.81
2023-01-13T15:01:29.706Z,74.15
2023-01-13T15:04:20.916Z,73.90
2023-01-13T15:06:54.147Z,73.85
2023-01-13T15:09:29.447Z,74.38
2023-01-13T15:11:59.526Z,73.48
2023-01-13T15:14:35.905Z,73.84
2023-01-13T15:17:08.779Z,73.77
2023-01-13T15:19:38.550Z,73.48
2023-01-13T15:22:09.461Z,73.48
2023-01-13T15:24:39.222Z,73.34
2023-01-13T15:27:14.872Z,73.39
2023-01-13T15:29:44.395Z,73.98
2023-01-13T15:32:19.534Z,74.90
2023-01-13T15:34:49.764Z,74.50
2023-01-13T15:37:19.660Z,74.31
2023-01-13T15:39:49.493Z,74.14
2023-01-13T15:42:36.618Z,75.24
2023-01-13T15:45:27.225Z,74.95
2023-01-13T15:47:58.183Z,74.63
2023-01-13T15:50:28.153Z,74.70
2023-01-13T15:52:57.996Z,74.54
2023-01-13T15:55:27.733Z,75.55
2023-01-13T15:57:57.973Z,75.23
2023-01-13T16:00:28.025Z,75.19
2023-01-13T16:02:58.286Z,76.00
2023-01-13T16:05:28.206Z,75.41
2023-01-13T16:07:58.234Z,75.17
2023-01-13T16:10:29.472Z,74.90
2023-01-13T16:12:59.252Z,74.90
2023-01-13T16:15:29.268Z,75.20
2023-01-13T16:18:03.455Z,74.38
2023-01-13T16:20:33.276Z,74.45
2023-01-13T16:23:03.072Z,74.09
2023-01-13T16:25:32.640Z,74.30
2023-01-13T16:28:02.861Z,75.13
2023-01-13T16:30:34.663Z,75.13
2023-01-13T16:33:05.119Z,75.01
2023-01-13T16:35:35.352Z,75.26
2023-01-13T16:38:06.435Z,75.74
2023-01-13T16:40:37.863Z,75.42
2023-01-13T16:43:07.359Z,75.44
2023-01-13T16:45:37.265Z,75.55
2023-01-13T16:48:07.285Z,75.83
2023-01-13T16:50:40.870Z,75.85
2023-01-13T16:53:12.168Z,75.93
2023-01-13T16:55:43.327Z,76.14
2023-01-13T16:58:19.543Z,76.16
2023-01-13T17:00:49.719Z,75.94
2023-01-13T17:03:20.232Z,75.46
2023-01-13T17:05:50.072Z,75.46
2023-01-13T17:08:19.875Z,75.35
2023-01-13T17:10:51.410Z,75.50
2023-01-13T17:13:21.161Z,75.00
2023-01-13T17:15:50.672Z,74.84
2023-01-13T17:18:20.425Z,75.83
2023-01-13T17:20:50.443Z,75.84
2023-01-13T17:23:20.236Z,75.31
2023-01-13T17:25:50.064Z,75.16
2023-01-13T17:28:19.774Z,76.13
2023-01-13T17:30:49.549Z,75.83
2023-01-13T17:33:19.603Z,74.92
2023-01-13T17:35:49.427Z,75.00
2023-01-13T17:38:19.177Z,74.92
2023-01-13T17:40:48.941Z,74.49
2023-01-13T17:43:18.709Z,74.04
2023-01-13T17:45:48.479Z,74.33
2023-01-13T17:48:18.593Z,74.71
2023-01-13T17:50:52.534Z,74.44
2023-01-13T17:53:22.662Z,74.34
2023-01-13T17:55:54.731Z,74.67
2023-01-13T17:58:24.770Z,75.39
2023-01-13T18:00:54.695Z,75.61
2023-01-13T18:03:24.463Z,76.10
2023-01-13T18:05:54.220Z,75.88
2023-01-13T18:08:24.464Z,75.87
2023-01-13T18:10:54.685Z,75.36
2023-01-13T18:13:24.515Z,75.45
2023-01-13T18:16:13.792Z,75.43
2023-01-13T18:18:45.831Z,76.07
2023-01-13T18:21:44.148Z,76.59
2023-01-13T18:24:35.626Z,76.53
2023-01-13T18:27:22.053Z,76.52
2023-01-13T18:29:52.351Z,77.19
2023-01-13T18:32:23.476Z,77.96
2023-01-13T18:35:01.752Z,77.67
2023-01-13T18:37:26.410Z,77.97
2023-01-13T18:39:56.151Z,78.57
2023-01-13T18:42:43.601Z,79.86
2023-01-13T18:45:13.433Z,79.86
2023-01-13T18:47:43.356Z,80.49
2023-01-13T18:50:14.494Z,80.49
2023-01-13T18:52:44.661Z,80.54
2023-01-13T18:55:14.866Z,80.59
2023-01-13T18:57:44.781Z,80.17
2023-01-13T19:00:17.443Z,79.99
2023-01-13T19:02:47.882Z,79.86
2023-01-13T19:05:17.721Z,80.00
2023-01-13T19:07:49.107Z,79.25
2023-01-13T19:10:19.472Z,79.19
2023-01-13T19:12:49.232Z,78.76
2023-01-13T19:15:19.046Z,78.84
2023-01-13T19:17:48.606Z,78.78
2023-01-13T19:20:19.939Z,78.52
2023-01-13T19:22:51.348Z,78.51
2023-01-13T19:25:21.136Z,78.15
2023-01-13T19:27:50.894Z,77.82
2023-01-13T19:30:20.772Z,77.34
2023-01-13T19:32:50.541Z,77.34
2023-01-13T19:35:20.105Z,76.90
2023-01-13T19:37:50.175Z,76.91
2023-01-13T19:40:19.991Z,77.13
2023-01-13T19:42:54.318Z,76.80
2023-01-13T19:45:26.628Z,76.65
2023-01-13T19:47:57.735Z,77.59
2023-01-13T19:50:27.567Z,77.96
2023-01-13T19:52:57.234Z,78.17
2023-01-13T19:55:28.074Z,80.95
2023-01-13T19:57:57.807Z,80.95
2023-01-13T20:00:27.833Z,82.04
2023-01-13T20:02:59.284Z,82.60
2023-01-13T20:05:30.104Z,83.11
2023-01-13T20:07:59.852Z,82.43
2023-01-13T20:10:30.570Z,82.43
2023-01-13T20:13:00.610Z,82.53
2023-01-13T20:15:30.104Z,82.48
2023-01-13T20:18:00.695Z,81.90
2023-01-13T20:20:30.963Z,82.23
2023-01-13T20:23:01.005Z,81.44
2023-01-13T20:25:31.050Z,81.70
2023-01-13T20:28:02.214Z,81.64
2023-01-13T20:30:31.699Z,81.13
2023-01-13T20:33:01.514Z,81.84
2023-01-13T20:35:31.014Z,81.66
2023-01-13T20:38:01.070Z,81.23
2023-01-13T20:40:30.828Z,81.92
2023-01-13T20:43:00.657Z,81.92
2023-01-13T20:45:30.441Z,80.84
2023-01-13T20:48:00.185Z,79.98
2023-01-13T20:50:30.418Z,80.42
2023-01-13T20:53:00.160Z,80.17
2023-01-13T20:55:29.985Z,79.99
2023-01-13T20:57:59.735Z,78.89
2023-01-13T21:00:29.747Z,79.48
2023-01-13T21:02:59.845Z,79.79
2023-01-13T21:05:29.724Z,80.29
2023-01-13T21:07:59.463Z,80.36
2023-01-13T21:10:29.154Z,80.72
2023-01-13T21:13:17.092Z,79.95
2023-01-13T21:15:49.835Z,79.96
2023-01-13T21:18:37.156Z,80.58
2023-01-13T21:21:13.560Z,81.17
2023-01-13T21:23:46.780Z,81.63
2023-01-13T21:26:17.038Z,81.57
2023-01-13T21:28:47.583Z,81.58
2023-01-13T21:31:18.969Z,81.28
2023-01-13T21:33:50.265Z,81.75
2023-01-13T21:36:19.973Z,81.30
2023-01-13T21:38:57.214Z,81.09
2023-01-13T21:41:45.650Z,81.94
2023-01-13T21:44:38.761Z,81.98
2023-01-13T21:47:37.563Z,81.67
2023-01-13T21:50:11.104Z,81.58
2023-01-13T21:52:44.160Z,80.99
2023-01-13T21:55:19.893Z,80.95
2023-01-13T21:57:51.345Z,80.62
2023-01-13T22:00:23.014Z,80.62
2023-01-13T22:02:53.431Z,80.65
2023-01-13T22:05:24.995Z,80.65
2023-01-13T22:07:54.837Z,80.66
2023-01-13T22:10:27.404Z,80.75
2023-01-13T22:13:00.246Z,80.86
2023-01-13T22:15:31.141Z,80.32
2023-01-13T22:18:01.552Z,80.07
2023-01-13T22:20:31.302Z,80.52
2023-01-13T22:23:01.470Z,80.73
2023-01-13T22:25:31.139Z,80.55
2023-01-13T22:28:03.240Z,81.16
2023-01-13T22:30:33.331Z,80.73
2023-01-13T22:33:03.390Z,80.30
2023-01-13T22:35:33.128Z,80.25
2023-01-13T22:38:03.211Z,79.58
2023-01-13T22:40:32.800Z,79.92
2023-01-13T22:43:02.871Z,79.99
2023-01-13T22:45:32.763Z,79.45
2023-01-13T22:48:02.578Z,79.07
2023-01-13T22:50:33.930Z,79.18
2023-01-13T22:53:03.781Z,79.29
2023-01-13T22:55:33.623Z,79.19
2023-01-13T22:58:03.763Z,78.85
2023-01-13T23:00:33.961Z,78.85
2023-01-13T23:03:05.945Z,78.91
2023-01-13T23:05:36.088Z,79.00
2023-01-13T23:08:06.078Z,78.62
2023-01-13T23:10:36.073Z,79.15
2023-01-13T23:13:06.417Z,78.52
2023-01-13T23:15:36.550Z,78.35
2023-01-13T23:18:06.345Z,78.22
2023-01-13T23:20:36.884Z,78.72
2023-01-13T23:23:06.726Z,79.05
2023-01-13T23:25:36.469Z,79.38
2023-01-13T23:28:07.258Z,79.40
2023-01-13T23:30:38.550Z,80.17
2023-01-13T23:33:08.395Z,79.89
2023-01-13T23:35:38.156Z,79.99
2023-01-13T23:38:09.816Z,79.29
2023-01-13T23:40:39.585Z,79.14
2023-01-13T23:43:09.348Z,79.59
2023-01-13T23:45:39.477Z,80.19
2023-01-13T23:48:10.272Z,79.66
2023-01-13T23:50:40.054Z,79.46
2023-01-13T23:53:10.004Z,79.41
2023-01-13T23:55:39.790Z,79.70
2023-01-13T23:58:11.496Z,80.35
